This is the latest recevied weather packets stored in our database for station/object DL9GJ-4. If no packets are shown the sender has not sent any weather packets the latest 1 day(s).
| Time | Temp. | Humidity | Pressure | Rain* | Wind** | Luminosity | Snow |
|---|---|---|---|---|---|---|---|
| 1778012470 | 10° C | 62% | 1008 hPa | 2.79 mm | 1.79 m/s, 215° | - | - |
| 1778012108 | 10° C | 64% | 1008 hPa | 2.79 mm | 0 m/s | - | - |
| 1778011745 | 9.44° C | 64% | 1008 hPa | 2.79 mm | 0 m/s | - | - |
| 1778011023 | 9.44° C | 63% | 1008 hPa | 2.79 mm | 0 m/s | - | - |
| 1778010658 | 9.44° C | 64% | 1008 hPa | 2.79 mm | 0 m/s | - | - |
| 1778009940 | 9.44° C | 64% | 1008 hPa | 2.79 mm | 0 m/s | - | - |
| 1778009575 | 9.44° C | 65% | 1008 hPa | 2.79 mm | 0.89 m/s, 149° | - | - |
| 1778008846 | 9.44° C | 64% | 1008 hPa | 2.79 mm | 1.34 m/s, 164° | - | - |
| 1778008123 | 10° C | 61% | 1008 hPa | 3.81 mm | 1.34 m/s, 122° | - | - |
| 1778007758 | 10° C | 58% | 1008 hPa | 3.81 mm | 1.34 m/s, 192° | - | - |
| 1778007395 | 10° C | 56% | 1008 hPa | 3.81 mm | 1.79 m/s, 219° | - | - |
| 1778006666 | 10.56° C | 47% | 1008 hPa | 0 mm | 2.68 m/s, 191° | - | - |
| 1778006301 | 11.67° C | 50% | 1007 hPa | 0 mm | 3.58 m/s, 258° | - | - |
| 1778005578 | 12.22° C | 51% | 1007 hPa | 0 mm | 0 m/s | - | - |
| 1778004853 | 12.22° C | 51% | 1007 hPa | 0 mm | 1.34 m/s, 260° | - | - |
| 1778003050 | 12.78° C | 47% | 1006 hPa | 0 mm | 1.34 m/s, 260° | - | - |
| 1778002327 | 13.33° C | 45% | 1006 hPa | 0 mm | 2.24 m/s, 258° | - | - |
| 1777999085 | 15.56° C | 33% | 1006 hPa | 0 mm | 0.89 m/s, 239° | - | - |
| 1777996204 | 15.56° C | 34% | 1006 hPa | 0 mm | 0 m/s | - | - |
| 1777995484 | 15.56° C | 35% | 1006 hPa | 0 mm | 0.89 m/s, 179° | - | - |
| 1777994403 | 15.56° C | 29% | 1006 hPa | 0 mm | 1.34 m/s, 241° | - | - |
| 1777993683 | 15.56° C | 26% | 1006 hPa | 0 mm | 0 m/s | - | - |
| 1777992963 | 16.67° C | 24% | 1006 hPa | 0 mm | 1.79 m/s, 214° | - | - |
| 1777992602 | 17.22° C | 23% | 1006 hPa | 0 mm | 1.34 m/s, 259° | - | - |
| 1777992242 | 17.78° C | 23% | 1006 hPa | 0 mm | 0.89 m/s, 261° | - | - |
* Rain latest hour (hover to see other rain measurements)
** Current wind speed in m/s (hover to see current wind gust speed)